ěÝzenÝ letovÚho provozu ╚eskÚ republiky
Letiste: LKKV Aktualizace: 07.04.2020 03:00:24  UTC
 METAR LKKV 07.04. 03:00 ...
METAR LKKV 070300Z 12003KT CAVOK 03/M01 Q1028 RMK REG QNH 1026=
 TAF LKKV 06.04. 23:00 ...
TAF LKKV 062300Z 0700/0806 VRB02KT CAVOK      TEMPO 0703/0706 3500 BR NSC      BECMG 0709/0712 07006KT=